createdAt,value
2024-05-09T00:00:31.508Z,4001.8462
2024-05-09T00:01:28.816Z,4024.4614
2024-05-09T00:02:29.710Z,4027.7500
2024-05-09T00:03:31.216Z,4021.3845
2024-05-09T00:04:32.750Z,4018.6924
2024-05-09T00:05:34.481Z,4038.9231
2024-05-09T00:06:35.749Z,4019.6924
2024-05-09T00:07:37.282Z,3993.7693
2024-05-09T00:08:38.894Z,3996.2307
2024-05-09T00:09:40.329Z,4036.3076
2024-05-09T00:10:41.862Z,4035.0769
2024-05-09T00:11:44.373Z,4014.0769
2024-05-09T00:12:44.928Z,4026.9167
2024-05-09T00:13:46.519Z,4017.2307
2024-05-09T00:14:48.061Z,4000.8462
2024-05-09T00:15:49.492Z,3993.4614
2024-05-09T00:16:51.085Z,4020.0000
2024-05-09T00:17:52.741Z,4016.1538
2024-05-09T00:18:54.250Z,4002.6924
2024-05-09T00:19:55.846Z,3991.2307
2024-05-09T00:20:57.163Z,4000.0769
2024-05-09T00:21:58.670Z,4001.1538
2024-05-09T00:23:00.248Z,4010.1538
2024-05-09T00:24:01.717Z,3993.3076
2024-05-09T00:25:03.278Z,3993.0000
2024-05-09T00:26:04.806Z,3989.9231
2024-05-09T00:27:06.380Z,3992.8462
2024-05-09T00:28:07.873Z,3986.2307
2024-05-09T00:29:09.482Z,4004.0769
2024-05-09T00:30:17.455Z,4002.3845
2024-05-09T00:31:12.449Z,3988.0000
2024-05-09T00:32:14.128Z,3986.8462
2024-05-09T00:33:15.693Z,3984.9231
2024-05-09T00:34:17.102Z,3995.1538
2024-05-09T00:35:18.698Z,3995.7693
2024-05-09T00:36:20.089Z,3968.7693
2024-05-09T00:37:21.599Z,3979.6155
2024-05-09T00:38:23.248Z,3968.7693
2024-05-09T00:39:24.679Z,3973.4614
2024-05-09T00:40:34.683Z,4000.3845
2024-05-09T00:41:27.899Z,3982.7693
2024-05-09T00:42:29.274Z,4008.9231
2024-05-09T00:43:30.793Z,3995.3076
2024-05-09T00:44:32.346Z,3986.6924
2024-05-09T00:45:33.851Z,3987.6155
2024-05-09T00:46:35.422Z,3981.6924
2024-05-09T00:47:37.009Z,3965.6155
2024-05-09T00:48:38.563Z,3984.2307
2024-05-09T00:49:40.034Z,3996.6924
2024-05-09T00:50:42.111Z,4004.3076
2024-05-09T00:51:43.054Z,3984.8462
2024-05-09T00:52:44.664Z,3986.3845
2024-05-09T00:53:46.147Z,3997.0000
2024-05-09T00:54:47.633Z,3976.3845
2024-05-09T00:55:49.216Z,3998.4614
2024-05-09T00:56:50.738Z,3973.0769
2024-05-09T00:57:52.243Z,3955.9231
2024-05-09T00:58:53.810Z,3991.0769
2024-05-09T00:59:55.303Z,4007.8462
2024-05-09T01:00:56.894Z,3983.4614
2024-05-09T01:01:58.544Z,3987.2307
2024-05-09T01:03:00.033Z,3972.3076
2024-05-09T01:04:01.552Z,3948.2307
2024-05-09T01:05:03.054Z,3918.5386
2024-05-09T01:06:04.518Z,3959.4614
2024-05-09T01:07:06.085Z,3966.9231
2024-05-09T01:08:07.711Z,3937.7693
2024-05-09T01:09:09.069Z,3937.3845
2024-05-09T01:10:17.030Z,3945.2307
2024-05-09T01:11:12.323Z,3952.6924
2024-05-09T01:12:13.926Z,3937.5386
2024-05-09T01:13:15.218Z,3950.3845
2024-05-09T01:14:16.784Z,3946.3845
2024-05-09T01:15:18.292Z,3943.6924
2024-05-09T01:16:19.801Z,3911.5386
2024-05-09T01:17:21.462Z,3904.6924
2024-05-09T01:18:22.971Z,3897.1538
2024-05-09T01:19:24.462Z,3919.4614
2024-05-09T01:20:36.897Z,3962.6155
2024-05-09T01:21:27.480Z,3951.8333
2024-05-09T01:22:29.382Z,3956.0769
2024-05-09T01:23:30.729Z,3958.4614
2024-05-09T01:24:32.052Z,3944.9231
2024-05-09T01:25:33.580Z,3926.5386
2024-05-09T01:26:35.156Z,3949.3076
2024-05-09T01:27:36.825Z,3948.9231
2024-05-09T01:28:38.188Z,3932.8462
2024-05-09T01:29:39.721Z,3945.7693
2024-05-09T01:30:41.277Z,3962.8462
2024-05-09T01:31:42.887Z,3967.1538
2024-05-09T01:32:44.499Z,3964.1538
2024-05-09T01:33:46.014Z,3930.0000
2024-05-09T01:34:47.412Z,3947.0769
2024-05-09T01:35:48.944Z,3930.3076
2024-05-09T01:36:50.453Z,3937.0000
2024-05-09T01:37:52.016Z,3944.2307
2024-05-09T01:38:53.512Z,3938.7693
2024-05-09T01:39:55.046Z,3924.7693
2024-05-09T01:40:56.669Z,3933.8462
2024-05-09T01:41:58.096Z,3949.0769
2024-05-09T01:42:59.656Z,3943.5386
2024-05-09T01:44:01.214Z,3952.6924
2024-05-09T01:45:02.716Z,3938.7693
2024-05-09T01:46:04.233Z,3958.8462
2024-05-09T01:47:05.866Z,3946.0000
2024-05-09T01:48:07.480Z,3949.0000
2024-05-09T01:49:08.982Z,3947.0769
2024-05-09T01:50:11.087Z,3923.6155
2024-05-09T01:51:12.136Z,3958.8462
2024-05-09T01:52:13.440Z,3956.3845
2024-05-09T01:53:15.566Z,3955.5386
2024-05-09T01:54:16.514Z,3970.0000
2024-05-09T01:55:18.025Z,3965.5386
2024-05-09T01:56:19.565Z,3942.6155
2024-05-09T01:57:21.132Z,3924.5386
2024-05-09T01:58:22.635Z,3933.6155
2024-05-09T01:59:24.272Z,3917.6924
2024-05-09T02:00:34.199Z,3964.6924
2024-05-09T02:01:27.211Z,3919.8462
2024-05-09T02:02:28.804Z,3925.3076
2024-05-09T02:03:30.455Z,3926.8462
2024-05-09T02:04:31.984Z,3913.2307
2024-05-09T02:05:33.476Z,3933.3076
2024-05-09T02:06:34.876Z,3941.0769
2024-05-09T02:07:36.399Z,3941.2307
2024-05-09T02:08:38.014Z,3927.5386
2024-05-09T02:09:39.462Z,3919.0769
2024-05-09T02:10:41.125Z,3968.7693
2024-05-09T02:11:42.589Z,3923.6155
2024-05-09T02:12:44.066Z,3935.0000
2024-05-09T02:13:45.631Z,3933.3845
2024-05-09T02:14:47.121Z,3932.2307
2024-05-09T02:15:48.652Z,3933.3076
2024-05-09T02:16:50.267Z,3914.3845
2024-05-09T02:17:51.928Z,3890.6155
2024-05-09T02:18:53.301Z,3908.0000
2024-05-09T02:19:54.890Z,3911.0769
2024-05-09T02:20:56.369Z,3937.6924
2024-05-09T02:21:57.887Z,3923.0769
2024-05-09T02:22:59.433Z,3924.9231
2024-05-09T02:24:00.935Z,3900.3845
2024-05-09T02:25:02.485Z,3904.2307
2024-05-09T02:26:04.034Z,3931.2307
2024-05-09T02:27:05.520Z,3914.2307
2024-05-09T02:28:07.033Z,3926.5386
2024-05-09T02:29:08.704Z,3920.7693
2024-05-09T02:30:18.698Z,3934.5386
2024-05-09T02:31:11.719Z,3917.8462
2024-05-09T02:32:13.447Z,3943.2307
2024-05-09T02:33:15.092Z,3949.0769
2024-05-09T02:34:16.383Z,3930.9231
2024-05-09T02:35:17.860Z,3929.8462
2024-05-09T02:36:19.383Z,3935.5386
2024-05-09T02:37:20.893Z,3915.6924
2024-05-09T02:38:22.511Z,3925.0769
2024-05-09T02:39:23.954Z,3901.1538
2024-05-09T02:40:33.564Z,3919.4614
2024-05-09T02:41:27.149Z,3928.4614
2024-05-09T02:42:28.560Z,3919.0000
2024-05-09T02:43:30.133Z,3957.5386
2024-05-09T02:44:31.723Z,3948.6155
2024-05-09T02:46:34.698Z,3925.5386
2024-05-09T02:47:36.351Z,3936.6155
2024-05-09T02:48:37.906Z,3928.7693
2024-05-09T02:49:39.347Z,3961.5386
2024-05-09T02:50:41.178Z,3943.7693
2024-05-09T02:51:42.338Z,3945.7693
2024-05-09T02:52:43.956Z,3961.0000
2024-05-09T02:53:45.464Z,3961.8462
2024-05-09T02:54:46.934Z,3946.0000
2024-05-09T02:55:48.511Z,3961.4614
2024-05-09T02:56:50.017Z,3947.3845
2024-05-09T02:57:51.545Z,3960.6155
2024-05-09T02:58:53.084Z,3953.6155
2024-05-09T02:59:54.619Z,3937.6155
2024-05-09T03:00:56.229Z,3927.6155
2024-05-09T03:01:57.801Z,3935.7693
2024-05-09T03:02:59.366Z,3989.6155
2024-05-09T03:04:00.985Z,3972.3076
2024-05-09T03:05:02.328Z,3961.2307
2024-05-09T03:06:03.801Z,3945.1538
2024-05-09T03:07:05.367Z,3943.6924
2024-05-09T03:08:07.088Z,3943.2307
2024-05-09T03:09:08.421Z,3945.9231
2024-05-09T03:10:18.247Z,3953.3076
2024-05-09T03:11:11.605Z,3940.4614
2024-05-09T03:12:13.171Z,3947.0000
2024-05-09T03:13:15.928Z,3944.8462
2024-05-09T03:14:16.135Z,3957.3076
2024-05-09T03:15:17.622Z,4001.0000
2024-05-09T03:16:19.109Z,3969.0000
2024-05-09T03:17:20.889Z,3944.0769
2024-05-09T03:18:22.322Z,3949.2307
2024-05-09T03:19:23.808Z,3950.9231
2024-05-09T03:20:32.416Z,3932.9231
2024-05-09T03:21:26.789Z,3947.7693
2024-05-09T03:22:28.311Z,3975.3076
2024-05-09T03:23:29.976Z,3983.1538
2024-05-09T03:24:31.368Z,3929.1538
2024-05-09T03:25:32.895Z,3947.5386
2024-05-09T03:26:35.412Z,3950.0000
2024-05-09T03:27:35.990Z,3926.3845
2024-05-09T03:28:37.501Z,3950.1538
2024-05-09T03:29:39.089Z,3948.6155
2024-05-09T03:30:42.887Z,3952.3076
2024-05-09T03:31:42.179Z,3937.2307
2024-05-09T03:32:43.808Z,3946.6155
2024-05-09T03:33:45.397Z,3941.0769
2024-05-09T03:34:46.753Z,3961.6155
2024-05-09T03:35:48.794Z,3940.7693
2024-05-09T03:36:49.792Z,3935.0000
2024-05-09T03:37:51.365Z,3918.9231
2024-05-09T03:38:52.811Z,3941.8462
2024-05-09T03:39:54.359Z,3945.6155
2024-05-09T03:40:55.921Z,3941.1538
2024-05-09T03:41:57.419Z,3980.0769
2024-05-09T03:42:59.076Z,3977.4614
2024-05-09T03:44:00.612Z,3957.0769
2024-05-09T03:45:02.020Z,3942.2307
2024-05-09T03:46:03.553Z,3970.5386
2024-05-09T03:47:05.128Z,3976.8462
2024-05-09T03:48:06.748Z,3940.3845
2024-05-09T03:49:08.318Z,3928.6155
2024-05-09T03:50:18.008Z,3922.9231
2024-05-09T03:51:11.309Z,3955.7693
2024-05-09T03:52:12.750Z,3945.4614
2024-05-09T03:53:14.502Z,3944.6924
2024-05-09T03:54:15.822Z,3954.0769
2024-05-09T03:55:17.353Z,3973.7693
2024-05-09T03:56:18.973Z,3949.3845
2024-05-09T03:57:20.420Z,3954.8462
2024-05-09T03:58:21.929Z,3970.3076
2024-05-09T03:59:23.488Z,3984.1538
2024-05-09T04:00:31.674Z,3946.7693
2024-05-09T04:01:26.626Z,3939.6924
2024-05-09T04:02:28.184Z,3971.4614
2024-05-09T04:03:29.797Z,3947.0769
2024-05-09T04:04:31.318Z,3972.7693
2024-05-09T04:05:32.947Z,3966.3845
2024-05-09T04:06:34.191Z,3968.2307
2024-05-09T04:07:35.737Z,3922.6924
2024-05-09T04:08:37.391Z,3955.0769
2024-05-09T04:09:38.801Z,3962.2307
2024-05-09T04:10:40.378Z,3938.6155
2024-05-09T04:11:41.943Z,3945.0000
2024-05-09T04:12:43.380Z,3937.4614
2024-05-09T04:13:44.960Z,3929.9231
2024-05-09T04:14:46.451Z,3932.4614
2024-05-09T04:15:48.011Z,3925.7693
2024-05-09T04:16:49.524Z,3965.0000
2024-05-09T04:17:51.315Z,3967.1538
2024-05-09T04:18:52.803Z,3955.5386
2024-05-09T04:19:54.192Z,3950.6155
2024-05-09T04:20:55.788Z,3992.6924
2024-05-09T04:21:57.212Z,3944.1538
2024-05-09T04:22:58.752Z,3967.3076
2024-05-09T04:24:00.255Z,3932.0000
2024-05-09T04:25:01.786Z,3920.2307
2024-05-09T04:26:03.387Z,3942.1538
2024-05-09T04:27:04.862Z,3922.6155
2024-05-09T04:28:06.408Z,3951.7693
2024-05-09T04:29:07.945Z,3938.3076
2024-05-09T04:30:15.472Z,3954.5386
2024-05-09T04:31:10.970Z,3960.6155
2024-05-09T04:32:12.691Z,3928.3845
2024-05-09T04:33:14.953Z,3970.5386
2024-05-09T04:34:15.739Z,3962.6924
2024-05-09T04:35:17.922Z,3929.3076
2024-05-09T04:36:18.636Z,3947.4167
2024-05-09T04:37:20.199Z,3955.1538
2024-05-09T04:38:21.763Z,3923.3076
2024-05-09T04:39:23.240Z,3949.7693
2024-05-09T04:40:31.613Z,3897.6924
2024-05-09T04:41:26.391Z,3931.5386
2024-05-09T04:42:27.841Z,3959.1538
2024-05-09T04:43:29.378Z,3949.2307
2024-05-09T04:44:30.948Z,3952.9231
2024-05-09T04:45:32.429Z,3936.0000
2024-05-09T04:46:33.956Z,3962.8462
2024-05-09T04:47:35.669Z,3949.1538
2024-05-09T04:48:37.192Z,3969.6924
2024-05-09T04:49:38.670Z,3952.3076
2024-05-09T04:50:40.305Z,3945.1538
2024-05-09T04:51:41.622Z,3949.4614
2024-05-09T04:52:43.142Z,3988.3076
2024-05-09T04:53:44.899Z,3948.9231
2024-05-09T04:54:46.267Z,3965.3076
2024-05-09T04:55:47.852Z,3982.2307
2024-05-09T04:56:49.317Z,3981.9231
2024-05-09T04:57:50.780Z,3953.9231
2024-05-09T04:58:52.369Z,3950.6924
2024-05-09T04:59:53.849Z,3968.4614
2024-05-09T05:00:55.423Z,3968.1538
2024-05-09T05:01:57.950Z,3963.7693
2024-05-09T05:02:58.614Z,3942.7693
2024-05-09T05:04:00.090Z,3975.4614
2024-05-09T05:05:01.606Z,3997.6924
2024-05-09T05:06:03.138Z,3985.5386
2024-05-09T05:07:04.568Z,3982.0769
2024-05-09T05:08:06.264Z,4009.6155
2024-05-09T05:09:07.627Z,3970.8462
2024-05-09T05:10:11.923Z,3966.8462
2024-05-09T05:11:10.775Z,3947.8462
2024-05-09T05:12:12.416Z,3945.1538
2024-05-09T05:13:13.745Z,3964.5386
2024-05-09T05:14:15.318Z,3983.8462
2024-05-09T05:15:16.799Z,3958.3076
2024-05-09T05:16:18.341Z,3958.9231
2024-05-09T05:17:19.928Z,3978.3076
2024-05-09T05:18:21.527Z,3978.6924
2024-05-09T05:19:23.004Z,3958.4614
2024-05-09T05:20:32.575Z,3955.4614
2024-05-09T05:21:26.189Z,3962.1667
2024-05-09T05:22:27.548Z,3968.3845
2024-05-09T05:23:29.149Z,3942.1538
2024-05-09T05:24:30.610Z,3943.3076
2024-05-09T05:25:32.111Z,3943.0000
2024-05-09T05:26:33.770Z,3941.1538
2024-05-09T05:27:35.212Z,3937.4614
2024-05-09T05:28:36.730Z,3949.9231
2024-05-09T05:29:38.376Z,3951.1538
2024-05-09T05:30:39.798Z,3953.3076
2024-05-09T05:31:41.362Z,3972.4614
2024-05-09T05:32:42.989Z,3946.8462
2024-05-09T05:33:44.422Z,3942.6924
2024-05-09T05:34:46.030Z,3940.6155
2024-05-09T05:35:47.536Z,3955.0769
2024-05-09T05:36:48.954Z,3944.9231
2024-05-09T05:37:50.585Z,3949.3076
2024-05-09T05:38:52.165Z,3961.5386
2024-05-09T05:39:53.565Z,3947.3845
2024-05-09T05:40:55.267Z,3933.7693
2024-05-09T05:41:57.442Z,3941.7693
2024-05-09T05:42:58.149Z,3949.3076
2024-05-09T05:43:59.721Z,3962.1538
2024-05-09T05:45:01.217Z,3929.9231
2024-05-09T05:46:02.778Z,3911.1538
2024-05-09T05:47:04.417Z,3930.1538
2024-05-09T05:48:06.612Z,3942.6924
2024-05-09T05:49:07.425Z,3907.6924
2024-05-09T05:50:20.481Z,3918.8462
2024-05-09T05:51:10.439Z,3932.0769
2024-05-09T05:52:11.952Z,3932.9231
2024-05-09T05:53:13.727Z,3931.2307
2024-05-09T05:54:14.994Z,3956.8462
2024-05-09T05:55:16.531Z,3949.2307
2024-05-09T05:56:18.099Z,3973.8462
2024-05-09T05:57:19.580Z,3965.3076
2024-05-09T05:58:21.101Z,3951.0000
2024-05-09T05:59:22.815Z,3945.4614
2024-05-09T06:00:30.398Z,3951.3076
2024-05-09T06:01:25.766Z,3951.0769
2024-05-09T06:02:27.311Z,3939.9231
2024-05-09T06:03:28.791Z,3952.6155
2024-05-09T06:04:30.356Z,3957.4614
2024-05-09T06:05:32.146Z,3957.3076
2024-05-09T06:06:33.354Z,3947.6924
2024-05-09T06:07:34.904Z,3931.8462
2024-05-09T06:08:36.463Z,3944.4614
2024-05-09T06:09:37.946Z,3939.7693
2024-05-09T06:10:41.026Z,3931.0000
2024-05-09T06:11:41.085Z,3994.3076
2024-05-09T06:12:42.555Z,3977.5386
2024-05-09T06:13:44.141Z,3961.6924
2024-05-09T06:14:45.594Z,3960.0769
2024-05-09T06:15:47.147Z,3948.0000
2024-05-09T06:16:48.694Z,3925.6155
2024-05-09T06:17:50.331Z,3973.1538
2024-05-09T06:18:51.973Z,3934.9231
2024-05-09T06:19:53.738Z,3984.4614
2024-05-09T06:20:54.850Z,3997.0000
2024-05-09T06:21:56.321Z,3978.7693
2024-05-09T06:22:57.878Z,3979.6924
2024-05-09T06:23:59.430Z,3991.5386
2024-05-09T06:25:00.934Z,3970.4614
2024-05-09T06:26:02.968Z,3959.1538
2024-05-09T06:27:04.021Z,3967.6667
2024-05-09T06:28:05.501Z,3967.3076
2024-05-09T06:29:07.103Z,3981.3845
2024-05-09T06:30:14.381Z,3983.5386
2024-05-09T06:31:10.114Z,3978.0769
2024-05-09T06:32:11.818Z,3989.5386
2024-05-09T06:33:15.450Z,3959.7693
2024-05-09T06:34:14.898Z,3979.3076
2024-05-09T06:35:16.947Z,3969.3076
2024-05-09T06:36:17.837Z,3954.9167
2024-05-09T06:37:19.383Z,3964.0000
2024-05-09T06:38:20.904Z,3968.4614
2024-05-09T06:39:22.408Z,3939.0000
2024-05-09T06:40:29.259Z,3987.3076
2024-05-09T06:41:25.575Z,3968.5386
2024-05-09T06:42:27.033Z,3989.8462
2024-05-09T06:43:28.539Z,3963.7693
2024-05-09T06:44:30.214Z,3988.3845
2024-05-09T06:45:31.609Z,3998.7693
2024-05-09T06:46:33.126Z,4000.6924
2024-05-09T06:47:34.812Z,3984.3845
2024-05-09T06:48:36.299Z,3987.3845
2024-05-09T06:49:37.910Z,3967.7693
2024-05-09T06:50:40.054Z,4000.6155
2024-05-09T06:51:40.781Z,3993.3845
2024-05-09T06:52:42.313Z,3979.3076
2024-05-09T06:53:43.843Z,3974.1538
2024-05-09T06:54:45.936Z,3986.5386
2024-05-09T06:55:47.038Z,3953.5000
2024-05-09T06:56:48.405Z,3973.4614
2024-05-09T06:57:49.943Z,3951.6924
2024-05-09T06:58:51.498Z,4002.2307
2024-05-09T06:59:53.023Z,3977.3845
2024-05-09T07:00:54.567Z,3991.1538
2024-05-09T07:01:56.154Z,4015.7693
2024-05-09T07:02:58.985Z,3996.2307
2024-05-09T07:03:59.210Z,3988.9231
2024-05-09T07:05:00.931Z,3977.4614
2024-05-09T07:06:02.251Z,3997.7693
2024-05-09T07:07:03.689Z,4016.0000
2024-05-09T07:08:05.998Z,4000.5386
2024-05-09T07:09:07.462Z,3989.1667
2024-05-09T07:10:14.798Z,3986.2500
2024-05-09T07:11:09.919Z,3989.0769
2024-05-09T07:12:11.471Z,3979.8462
2024-05-09T07:13:13.063Z,4016.5386
2024-05-09T07:14:14.466Z,3996.6924
2024-05-09T07:15:15.945Z,3966.5386
2024-05-09T07:16:17.442Z,3986.9231
2024-05-09T07:17:19.101Z,3993.7693
2024-05-09T07:18:20.933Z,4014.2307
2024-05-09T07:19:22.149Z,3998.1538
2024-05-09T07:20:32.121Z,3982.9231
2024-05-09T07:21:25.130Z,3968.3845
2024-05-09T07:22:26.612Z,3961.7693
2024-05-09T07:23:28.299Z,3958.6155
2024-05-09T07:24:29.659Z,3955.7693
2024-05-09T07:25:31.235Z,3976.2307
2024-05-09T07:26:33.022Z,3964.1538
2024-05-09T07:27:34.268Z,3981.5386
2024-05-09T07:28:35.804Z,3964.2307
2024-05-09T07:29:38.860Z,3964.4614
2024-05-09T07:30:38.841Z,3972.1538
2024-05-09T07:31:40.412Z,3974.9231
2024-05-09T07:32:42.010Z,3979.3076
2024-05-09T07:33:43.497Z,4001.1538
2024-05-09T07:34:45.113Z,3984.8462
2024-05-09T07:35:46.550Z,3996.3076
2024-05-09T07:36:48.043Z,3982.8462
2024-05-09T07:37:49.622Z,3974.9231
2024-05-09T07:38:51.106Z,3979.0000
2024-05-09T07:39:52.586Z,4000.2307
2024-05-09T07:40:54.122Z,3972.6155
2024-05-09T07:41:55.630Z,3965.6924
2024-05-09T07:42:57.154Z,3966.3076
2024-05-09T07:43:58.746Z,3965.4614
2024-05-09T07:45:17.132Z,3980.7693
2024-05-09T07:46:51.610Z,3974.9231
2024-05-09T07:48:14.149Z,3985.8462
2024-05-09T07:53:29.195Z,3984.1538
2024-05-09T07:53:37.196Z,3987.8462
2024-05-09T07:54:14.144Z,3961.3845
2024-05-09T07:55:15.655Z,3982.0000
2024-05-09T07:56:17.754Z,3972.8462
2024-05-09T07:57:18.691Z,4015.9231
2024-05-09T07:58:20.059Z,3989.3845
2024-05-09T07:59:21.635Z,3974.0000
2024-05-09T08:00:29.753Z,3993.5386
2024-05-09T08:01:24.822Z,3966.7693
2024-05-09T08:02:26.461Z,3992.5386
2024-05-09T08:03:27.787Z,3995.7693
2024-05-09T08:04:29.434Z,3985.0769
2024-05-09T08:05:31.058Z,3979.7693
2024-05-09T08:06:32.336Z,3985.0769
2024-05-09T08:07:33.844Z,4001.8462
2024-05-09T08:08:35.390Z,3964.2307
2024-05-09T08:09:38.394Z,3979.2307
2024-05-09T08:10:38.499Z,3992.0000
2024-05-09T08:11:39.966Z,4002.5386
2024-05-09T08:12:41.545Z,3977.2307
2024-05-09T08:13:43.036Z,3962.2307
2024-05-09T08:14:44.547Z,3994.7693
2024-05-09T08:15:47.002Z,3983.8462
2024-05-09T08:16:48.468Z,3991.7500
2024-05-09T08:17:49.168Z,3972.0833
2024-05-09T08:18:50.806Z,3971.0000
2024-05-09T08:19:52.246Z,3970.5386
2024-05-09T08:20:53.734Z,3972.6924
2024-05-09T08:21:55.556Z,3984.6924
2024-05-09T08:22:56.815Z,3961.9231
2024-05-09T08:23:58.330Z,3970.0000
2024-05-09T08:24:59.926Z,3994.3845
2024-05-09T08:26:01.373Z,4013.3076
2024-05-09T08:27:02.933Z,3994.0000
2024-05-09T08:28:04.549Z,3990.5386
2024-05-09T08:29:05.979Z,3999.7693
2024-05-09T08:30:10.219Z,4016.9231
2024-05-09T08:31:09.080Z,4020.0769
2024-05-09T08:32:10.617Z,4001.6924
2024-05-09T08:33:12.200Z,3968.7693
2024-05-09T08:34:13.832Z,3981.9231
2024-05-09T08:35:15.178Z,3989.8462
2024-05-09T08:36:16.673Z,4009.3076
2024-05-09T08:37:22.493Z,3997.3845
2024-05-09T08:38:19.739Z,3979.7693
2024-05-09T08:39:21.274Z,4005.8462
2024-05-09T08:40:30.701Z,4003.0000
2024-05-09T08:41:24.331Z,3990.2307
2024-05-09T08:42:25.859Z,4018.3076
2024-05-09T08:43:27.406Z,3984.4614
2024-05-09T08:44:28.955Z,3982.2307
2024-05-09T08:45:30.596Z,3989.6155
2024-05-09T08:46:32.035Z,4011.3076
2024-05-09T08:47:33.555Z,3989.5386
2024-05-09T08:48:35.177Z,3980.7693
2024-05-09T08:49:37.777Z,3999.6924
2024-05-09T08:50:39.706Z,4007.3845
2024-05-09T08:51:39.691Z,3977.6155
2024-05-09T08:52:41.974Z,4004.4614
2024-05-09T08:53:42.703Z,4025.9231
2024-05-09T08:54:44.246Z,4013.7693
2024-05-09T08:55:45.784Z,4008.5386
2024-05-09T08:56:47.254Z,4006.7693
2024-05-09T08:57:48.820Z,3987.0000
2024-05-09T08:58:50.346Z,3982.2307
2024-05-09T08:59:51.852Z,4009.5386
2024-05-09T09:00:53.513Z,4012.8462
2024-05-09T09:01:55.043Z,4003.2307
2024-05-09T09:02:57.020Z,4008.0000
2024-05-09T09:03:58.038Z,4001.4167
2024-05-09T09:04:59.660Z,3992.3076
2024-05-09T09:06:01.058Z,4000.4614
2024-05-09T09:07:03.629Z,4003.8462
2024-05-09T09:08:04.079Z,3997.4614
2024-05-09T09:09:05.626Z,3995.8462
2024-05-09T09:10:08.715Z,3993.3845
2024-05-09T09:11:08.672Z,3971.5386
2024-05-09T09:12:10.771Z,3997.6155
2024-05-09T09:13:11.852Z,3979.6924
2024-05-09T09:14:13.251Z,4006.3845
2024-05-09T09:15:14.811Z,4033.0000
2024-05-09T09:16:16.382Z,3975.7693
2024-05-09T09:17:17.908Z,3970.0000
2024-05-09T09:18:19.563Z,3976.3845
2024-05-09T09:19:21.146Z,3985.9231
2024-05-09T09:20:26.571Z,3994.5386
2024-05-09T09:21:23.947Z,3988.5386
2024-05-09T09:22:25.493Z,3977.8462
2024-05-09T09:23:27.032Z,3986.2307
2024-05-09T09:24:28.611Z,3999.3845
2024-05-09T09:25:30.093Z,3974.3845
2024-05-09T09:26:31.595Z,3998.0000
2024-05-09T09:27:33.169Z,3985.3076
2024-05-09T09:28:34.663Z,3995.8462
2024-05-09T09:29:36.601Z,3964.2307
2024-05-09T09:30:38.265Z,3982.5000
2024-05-09T09:31:39.320Z,3985.0000
2024-05-09T09:32:40.880Z,3991.5386
2024-05-09T09:33:42.488Z,3999.3845
2024-05-09T09:34:43.964Z,3987.6155
2024-05-09T09:35:45.355Z,3989.6155
2024-05-09T09:36:46.966Z,3977.3845
2024-05-09T09:37:48.396Z,3986.5386
2024-05-09T09:38:49.940Z,3975.5386
2024-05-09T09:39:51.555Z,3960.3076
2024-05-09T09:40:53.037Z,3976.0000
2024-05-09T09:41:54.521Z,3984.6924
2024-05-09T09:42:56.118Z,3973.9231
2024-05-09T09:43:57.570Z,4001.6924
2024-05-09T09:45:04.896Z,3991.3076
2024-05-09T09:46:00.684Z,3996.5833
2024-05-09T09:47:02.191Z,3948.6924
2024-05-09T09:48:03.784Z,3994.5386
2024-05-09T09:49:05.639Z,4004.8462
2024-05-09T09:50:12.040Z,4016.0000
2024-05-09T09:51:08.308Z,3997.3076
2024-05-09T09:52:11.411Z,4004.2307
2024-05-09T09:53:11.320Z,3982.8333
2024-05-09T09:54:12.891Z,4009.0000
2024-05-09T09:55:14.549Z,4002.6924
2024-05-09T09:56:15.937Z,3982.7693
2024-05-09T09:57:17.447Z,4006.0769
2024-05-09T09:58:19.048Z,3989.6155
2024-05-09T09:59:20.514Z,3991.6924
2024-05-09T10:00:27.163Z,4016.7693
2024-05-09T10:01:23.602Z,3993.8462
2024-05-09T10:02:25.231Z,4001.6924
2024-05-09T10:03:26.696Z,3995.1538
2024-05-09T10:04:28.244Z,4010.0000
2024-05-09T10:05:30.105Z,4041.3076
2024-05-09T10:06:31.240Z,4015.6924
2024-05-09T10:07:32.724Z,4003.0769
2024-05-09T10:08:35.005Z,4029.5386
2024-05-09T10:09:36.054Z,4036.4614
2024-05-09T10:10:37.392Z,4017.2307
2024-05-09T10:11:45.176Z,4025.6155
2024-05-09T10:12:40.388Z,4028.1538
2024-05-09T10:13:41.928Z,4052.3845
2024-05-09T10:14:43.431Z,4019.9231
2024-05-09T10:15:44.978Z,4038.6155
2024-05-09T10:16:46.496Z,4019.9231
2024-05-09T10:17:48.080Z,4051.2307
2024-05-09T10:18:49.635Z,4039.6155
2024-05-09T10:19:51.130Z,4025.1538
2024-05-09T10:20:52.598Z,4013.7693
2024-05-09T10:21:54.161Z,4024.8462
2024-05-09T10:22:55.635Z,4030.6155
2024-05-09T10:23:57.183Z,4016.6155
2024-05-09T10:24:59.177Z,4053.5386
2024-05-09T10:26:00.278Z,3992.4614
2024-05-09T10:27:01.770Z,4003.5386
2024-05-09T10:28:03.330Z,4014.3845
2024-05-09T10:29:04.785Z,3989.0000
2024-05-09T10:30:11.563Z,4020.0769
2024-05-09T10:31:08.054Z,4031.6155
2024-05-09T10:32:09.395Z,4007.3076
2024-05-09T10:33:11.148Z,3996.1538
2024-05-09T10:34:12.633Z,3983.3845
2024-05-09T10:35:14.035Z,4008.2307
2024-05-09T10:36:15.605Z,4021.0000
2024-05-09T10:37:17.195Z,4003.9231
2024-05-09T10:38:18.643Z,4043.7693
2024-05-09T10:39:20.164Z,4020.2307
2024-05-09T10:41:23.372Z,4006.9231
2024-05-09T10:42:24.740Z,3972.1538
2024-05-09T10:43:26.323Z,4003.7693
2024-05-09T10:44:27.822Z,4005.5386
2024-05-09T10:45:29.379Z,4001.8462
2024-05-09T10:46:30.987Z,3993.1538
2024-05-09T10:47:32.589Z,3976.7693
2024-05-09T10:48:34.038Z,3985.3076
2024-05-09T10:49:35.543Z,3955.3076
2024-05-09T10:50:37.003Z,3972.8462
2024-05-09T10:51:39.136Z,3971.2307
2024-05-09T10:52:40.065Z,3971.7500
2024-05-09T10:53:41.589Z,3996.4614
2024-05-09T10:54:43.179Z,3999.5386
2024-05-09T10:55:44.661Z,4038.2307
2024-05-09T10:56:46.199Z,4010.1538
2024-05-09T10:57:47.763Z,3981.4614
2024-05-09T10:58:49.267Z,3963.7693
2024-05-09T10:59:50.795Z,3978.6155
2024-05-09T11:00:52.397Z,3960.0769
2024-05-09T11:01:54.635Z,3969.8462
2024-05-09T11:02:55.409Z,3936.7693
2024-05-09T11:03:57.011Z,3956.4614
2024-05-09T11:04:58.518Z,3958.7693
2024-05-09T11:05:59.948Z,3952.2307
2024-05-09T11:07:02.893Z,3975.9231
2024-05-09T11:08:03.038Z,3950.9231
2024-05-09T11:09:04.753Z,3998.8462
2024-05-09T11:10:09.661Z,3995.1538
2024-05-09T11:11:08.998Z,3994.2307
2024-05-09T11:12:09.261Z,4006.1667
2024-05-09T11:13:10.778Z,4010.3845
2024-05-09T11:14:12.214Z,4034.6155
2024-05-09T11:15:13.755Z,4036.0769
2024-05-09T11:16:15.317Z,4024.0769
2024-05-09T11:17:16.826Z,4042.7693
2024-05-09T11:18:19.799Z,4005.3845
2024-05-09T11:19:20.152Z,4016.0000
2024-05-09T11:20:26.959Z,4033.6924
2024-05-09T11:21:22.920Z,4029.6155
2024-05-09T11:22:24.479Z,4005.6155
2024-05-09T11:23:25.990Z,4006.6924
2024-05-09T11:24:27.646Z,4014.5386
2024-05-09T11:25:29.027Z,4034.8462
2024-05-09T11:26:30.555Z,4005.6924
2024-05-09T11:27:32.124Z,3995.7693
2024-05-09T11:28:33.641Z,4031.6155
2024-05-09T11:29:35.156Z,4010.1538
2024-05-09T11:30:36.720Z,4002.1538
2024-05-09T11:31:38.260Z,3992.6924
2024-05-09T11:32:39.801Z,3982.8462
2024-05-09T11:33:41.490Z,3983.7693
2024-05-09T11:34:42.991Z,3989.6924
2024-05-09T11:35:44.353Z,3988.0000
2024-05-09T11:36:45.920Z,4003.9231
2024-05-09T11:37:48.058Z,3998.7693
2024-05-09T11:38:49.584Z,3999.3333
2024-05-09T11:39:50.536Z,3999.5000
2024-05-09T11:40:52.082Z,4008.6924
2024-05-09T11:41:53.522Z,4016.9231
2024-05-09T11:42:55.144Z,4008.0000
2024-05-09T11:43:56.624Z,4007.2307
2024-05-09T11:44:58.117Z,4012.5386
2024-05-09T11:45:59.800Z,4004.6924
2024-05-09T11:47:01.221Z,4033.6155
2024-05-09T11:48:02.999Z,4057.7693